Terminal Aerodrome Forecast
Issued by NWS

Home | Current Version | Previous Version | Text Only | Print | Product List | Glossary On
Versions: 1 2 3 4 5 6 7 8 9 10 11 12 13 14 15 16 17 18 19 20 21 22 23 24 25
000
FTUS46 KEKA 300522
TAFCEC
TAF
KCEC 300522Z 3006/3106 VRB04KT 6SM BR OVC007
     FM300900 00000KT 2SM BR OVC004
     FM301400 22004KT P6SM OVC006
     FM302000 23005KT P6SM BKN012
     FM310100 VRB03KT P6SM OVC010=

USA.gov is the U.S. government's official web portal to all federal, state and local government web resources and services.